createdAt,value
2018-12-08T00:00:17.419Z,98988.31
2018-12-08T00:05:20.722Z,99022.22
2018-12-08T00:10:23.998Z,99027.72
2018-12-08T00:15:26.261Z,99041.10
2018-12-08T00:20:28.391Z,99043.94
2018-12-08T00:25:30.638Z,99050.38
2018-12-08T00:30:44.894Z,99066.21
2018-12-08T00:35:47.101Z,99088.29
2018-12-08T00:40:56.500Z,99105.16
2018-12-08T00:45:58.659Z,99117.73
2018-12-08T00:51:00.734Z,99122.48
2018-12-08T00:56:02.970Z,99118.03
2018-12-08T01:01:05.242Z,99150.73
2018-12-08T01:06:07.494Z,99134.34
2018-12-08T01:11:16.708Z,99151.11
2018-12-08T01:16:18.869Z,99178.66
2018-12-08T01:21:21.026Z,99154.03
2018-12-08T01:26:23.582Z,99144.55
2018-12-08T01:31:25.967Z,99149.48
2018-12-08T01:36:28.149Z,99173.39
2018-12-08T01:41:30.445Z,99172.22
2018-12-08T01:46:32.628Z,99170.27
2018-12-08T01:51:34.802Z,99165.66
2018-12-08T01:56:37.146Z,99179.56
2018-12-08T02:01:39.298Z,99170.91
2018-12-08T02:06:41.389Z,99170.13
2018-12-08T02:11:43.462Z,99166.65
2018-12-08T02:16:45.497Z,99166.67
2018-12-08T02:21:47.870Z,99165.98
2018-12-08T02:26:50.161Z,99180.97
2018-12-08T02:31:52.427Z,99167.98
2018-12-08T02:36:54.516Z,99181.63
2018-12-08T02:41:57.037Z,99188.45
2018-12-08T02:46:59.181Z,99189.78
2018-12-08T02:52:01.233Z,99198.13
2018-12-08T02:57:03.443Z,99206.63
2018-12-08T03:02:12.692Z,99200.64
2018-12-08T03:07:14.886Z,99212.12
2018-12-08T03:12:17.722Z,99202.77
2018-12-08T03:17:20.857Z,99205.28
2018-12-08T03:22:22.909Z,99223.95
2018-12-08T03:27:25.282Z,99222.25
2018-12-08T03:32:27.572Z,99220.09
2018-12-08T03:37:29.734Z,99230.25
2018-12-08T03:42:32.021Z,99238.42
2018-12-08T03:47:34.118Z,99255.09
2018-12-08T03:52:36.306Z,99258.36
2018-12-08T03:57:38.505Z,99258.23
2018-12-08T04:02:40.697Z,99261.72
2018-12-08T04:07:43.173Z,99263.69
2018-12-08T04:12:45.489Z,99294.66
2018-12-08T04:17:47.520Z,99290.97
2018-12-08T04:22:49.581Z,99271.94
2018-12-08T04:27:52.085Z,99284.94
2018-12-08T04:32:54.145Z,99293.70
2018-12-08T04:38:03.141Z,99301.22
2018-12-08T04:43:07.334Z,99308.63
2018-12-08T04:48:09.582Z,99309.15
2018-12-08T04:53:12.410Z,99307.89
2018-12-08T04:58:14.533Z,99298.44
2018-12-08T05:03:16.761Z,99297.68
2018-12-08T05:08:19.101Z,99306.62
2018-12-08T05:13:22.149Z,99304.28
2018-12-08T05:18:24.301Z,99298.95
2018-12-08T05:23:26.352Z,99284.30
2018-12-08T05:28:29.260Z,99289.69
2018-12-08T05:33:31.429Z,99299.90
2018-12-08T05:38:33.593Z,99278.06
2018-12-08T05:43:35.917Z,99276.37
2018-12-08T05:48:37.967Z,99291.53
2018-12-08T05:53:40.021Z,99297.36
2018-12-08T05:58:42.213Z,99306.13
2018-12-08T06:03:44.470Z,99304.61
2018-12-08T06:08:46.542Z,99286.45
2018-12-08T06:13:48.761Z,99294.89
2018-12-08T06:18:51.084Z,99293.55
2018-12-08T06:23:53.387Z,99294.33
2018-12-08T06:28:55.701Z,99310.64
2018-12-08T06:33:57.991Z,99308.40
2018-12-08T06:39:00.282Z,99312.08
2018-12-08T06:44:02.752Z,99310.50
2018-12-08T06:49:04.935Z,99300.02
2018-12-08T06:54:07.126Z,99281.97
2018-12-08T06:59:09.648Z,99291.48
2018-12-08T07:04:11.829Z,99293.44
2018-12-08T07:09:13.918Z,99287.28
2018-12-08T07:14:17.139Z,99278.80
2018-12-08T07:19:19.285Z,99284.44
2018-12-08T07:24:21.352Z,99271.42
2018-12-08T07:29:23.401Z,99283.44
2018-12-08T07:34:25.707Z,99274.98
2018-12-08T07:39:28.901Z,99271.19
2018-12-08T07:44:30.993Z,99270.08
2018-12-08T07:49:33.045Z,99272.60
2018-12-08T07:54:35.225Z,99249.13
2018-12-08T07:59:37.617Z,99251.84
2018-12-08T08:04:39.909Z,99262.19
2018-12-08T08:09:42.005Z,99247.16
2018-12-08T08:14:44.077Z,99255.14
2018-12-08T08:19:46.366Z,99256.46
2018-12-08T08:24:48.553Z,99240.97
2018-12-08T08:29:51.047Z,99247.63
2018-12-08T08:34:56.167Z,99278.14
2018-12-08T08:39:58.625Z,99258.44
2018-12-08T08:45:00.777Z,99248.75
2018-12-08T08:50:05.108Z,99250.73
2018-12-08T08:55:07.733Z,99245.89
2018-12-08T09:00:10.357Z,99246.67
2018-12-08T09:05:12.933Z,99246.86
2018-12-08T09:10:15.302Z,99219.42
2018-12-08T09:15:17.571Z,99227.46
2018-12-08T09:20:19.731Z,99229.20
2018-12-08T09:25:22.575Z,99210.20
2018-12-08T09:30:24.777Z,99183.63
2018-12-08T09:35:26.836Z,99221.52
2018-12-08T09:40:28.906Z,99177.00
2018-12-08T09:45:31.358Z,99189.35
2018-12-08T09:50:33.666Z,99169.58
2018-12-08T09:55:35.747Z,99165.85
2018-12-08T10:00:38.977Z,99143.71
2018-12-08T10:05:41.150Z,99175.36
2018-12-08T10:10:43.281Z,99162.19
2018-12-08T10:15:45.609Z,99171.86
2018-12-08T10:20:47.693Z,99162.34
2018-12-08T10:25:49.798Z,99159.47
2018-12-08T10:30:58.986Z,99140.75
2018-12-08T10:36:01.173Z,99155.77
2018-12-08T10:41:03.485Z,99125.16
2018-12-08T10:46:05.678Z,99120.22
2018-12-08T10:51:08.014Z,99097.22
2018-12-08T10:56:13.038Z,99079.70
2018-12-08T11:01:20.786Z,99062.73
2018-12-08T11:06:23.101Z,99087.48
2018-12-08T11:11:25.613Z,99074.83
2018-12-08T11:16:27.895Z,99107.46
2018-12-08T11:21:30.129Z,99047.55
2018-12-08T11:26:32.341Z,99061.08
2018-12-08T11:31:34.532Z,99071.11
2018-12-08T11:36:36.721Z,99048.53
2018-12-08T11:41:39.791Z,99025.80
2018-12-08T11:46:42.601Z,99024.44
2018-12-08T11:51:47.589Z,99026.09
2018-12-08T11:56:49.870Z,99009.64
2018-12-08T12:01:52.343Z,99020.03
2018-12-08T12:06:55.063Z,99028.23
2018-12-08T12:11:57.582Z,99018.37
2018-12-08T12:16:59.813Z,99041.17
2018-12-08T12:22:02.005Z,99006.12
2018-12-08T12:27:04.284Z,98999.89
2018-12-08T12:32:09.770Z,98988.98
2018-12-08T12:37:12.057Z,98977.61
2018-12-08T12:42:14.241Z,98969.50
2018-12-08T12:47:16.461Z,98979.14
2018-12-08T12:52:18.533Z,98958.13
2018-12-08T12:57:20.709Z,98956.42
2018-12-08T13:02:22.895Z,98965.02
2018-12-08T13:07:25.083Z,98960.50
2018-12-08T13:12:27.201Z,98950.68
2018-12-08T13:17:29.447Z,98950.95
2018-12-08T13:22:31.626Z,98943.47
2018-12-08T13:27:33.681Z,98957.76
2018-12-08T13:32:35.753Z,98997.00
2018-12-08T13:37:37.817Z,98975.00
2018-12-08T13:42:39.982Z,98961.67
2018-12-08T13:47:42.709Z,98963.42
2018-12-08T13:52:44.874Z,98944.88
2018-12-08T13:57:47.076Z,98935.34
2018-12-08T14:02:49.437Z,98932.98
2018-12-08T14:07:51.517Z,98935.66
2018-12-08T14:12:53.682Z,98963.59
2018-12-08T14:17:56.081Z,98958.99
2018-12-08T14:22:58.241Z,98937.03
2018-12-08T14:33:36.133Z,98963.04
2018-12-08T14:38:38.330Z,98985.41
2018-12-08T14:43:40.608Z,98974.20
2018-12-08T14:48:42.788Z,98975.82
2018-12-08T14:53:45.257Z,98989.25
2018-12-08T14:58:47.638Z,98981.48
2018-12-08T15:03:49.954Z,98988.03
2018-12-08T15:08:52.042Z,98990.02
2018-12-08T15:13:54.214Z,99010.25
2018-12-08T15:18:56.497Z,98984.66
2018-12-08T15:23:58.557Z,99003.48
2018-12-08T15:29:00.723Z,98994.27
2018-12-08T15:34:03.430Z,99007.97
2018-12-08T15:39:06.498Z,98992.97
2018-12-08T15:44:10.200Z,99002.04
2018-12-08T15:49:14.404Z,99021.37
2018-12-08T15:54:16.689Z,99019.35
2018-12-08T15:59:18.981Z,98987.31
2018-12-08T16:04:21.185Z,98993.74
2018-12-08T16:09:23.483Z,98980.28
2018-12-08T16:14:25.573Z,98990.11
2018-12-08T16:19:27.980Z,98991.86
2018-12-08T16:24:30.066Z,98988.42
2018-12-08T16:29:32.833Z,98969.09
2018-12-08T16:34:35.145Z,98967.55
2018-12-08T16:39:37.815Z,98958.30
2018-12-08T16:44:40.130Z,98965.72
2018-12-08T16:49:42.341Z,98965.80
2018-12-08T16:54:44.877Z,98963.34
2018-12-08T16:59:47.121Z,98960.09
2018-12-08T17:04:49.313Z,98961.35
2018-12-08T17:09:51.562Z,98983.09
2018-12-08T17:14:53.854Z,98975.25
2018-12-08T17:19:56.138Z,98978.81
2018-12-08T17:24:58.198Z,98969.91
2018-12-08T17:30:00.506Z,98953.48
2018-12-08T17:35:03.071Z,98969.19
2018-12-08T17:40:07.035Z,98969.45
2018-12-08T17:45:09.329Z,98951.55
2018-12-08T17:50:11.609Z,98957.58
2018-12-08T17:55:13.905Z,98963.61
2018-12-08T18:00:16.384Z,98944.48
2018-12-08T18:05:18.669Z,98947.08
2018-12-08T18:10:21.233Z,98938.83
2018-12-08T18:15:23.517Z,98945.89
2018-12-08T18:20:25.561Z,98937.40
2018-12-08T18:25:27.668Z,98937.59
2018-12-08T18:30:29.845Z,98926.17
2018-12-08T18:35:32.126Z,98920.36
2018-12-08T18:40:34.303Z,98908.87
2018-12-08T18:45:36.470Z,98884.12
2018-12-08T18:50:38.632Z,98885.27
2018-12-08T18:55:40.821Z,98885.11
2018-12-08T19:00:43.185Z,98878.14
2018-12-08T19:05:45.465Z,98879.84
2018-12-08T19:10:47.669Z,98874.45
2018-12-08T19:15:49.998Z,98881.03
2018-12-08T19:20:52.261Z,98849.66
2018-12-08T19:25:54.457Z,98853.27
2018-12-08T19:30:56.672Z,98852.56
2018-12-08T19:36:05.812Z,98842.86
2018-12-08T19:41:07.989Z,98826.69
2018-12-08T19:46:10.289Z,98821.98
2018-12-08T19:51:12.575Z,98806.78
2018-12-08T19:56:14.673Z,98798.06
2018-12-08T20:01:17.774Z,98792.36
2018-12-08T20:06:20.141Z,98773.72
2018-12-08T20:11:22.349Z,98756.48
2018-12-08T20:16:24.514Z,98768.89
2018-12-08T20:21:26.785Z,98773.71
2018-12-08T20:26:29.137Z,98767.22
2018-12-08T20:31:31.317Z,98754.00
2018-12-08T20:36:33.593Z,98752.06
2018-12-08T20:41:35.834Z,98742.23
2018-12-08T20:46:38.154Z,98725.55
2018-12-08T20:51:40.473Z,98721.67
2018-12-08T20:56:43.436Z,98692.83
2018-12-08T21:01:45.610Z,98693.56
2018-12-08T21:06:49.078Z,98663.27
2018-12-08T21:11:52.161Z,98659.73
2018-12-08T21:16:54.321Z,98652.47
2018-12-08T21:21:56.482Z,98625.58
2018-12-08T21:26:58.911Z,98615.54
2018-12-08T21:32:01.093Z,98583.56
2018-12-08T21:37:03.389Z,98587.24
2018-12-08T21:42:05.613Z,98560.03
2018-12-08T21:47:07.776Z,98542.39
2018-12-08T21:52:10.574Z,98526.03
2018-12-08T21:57:12.858Z,98484.66
2018-12-08T22:02:15.106Z,98476.36
2018-12-08T22:07:17.355Z,98461.73
2018-12-08T22:12:19.541Z,98452.55
2018-12-08T22:17:21.825Z,98439.16
2018-12-08T22:22:24.013Z,98427.84
2018-12-08T22:27:26.165Z,98423.55
2018-12-08T22:32:28.334Z,98386.30
2018-12-08T22:37:30.403Z,98389.33
2018-12-08T22:42:32.458Z,98363.90
2018-12-08T22:47:34.514Z,98366.36
2018-12-08T22:52:36.934Z,98350.80
2018-12-08T22:57:39.552Z,98338.77
2018-12-08T23:02:42.034Z,98318.17
2018-12-08T23:07:44.334Z,98314.78
2018-12-08T23:12:46.406Z,98279.47
2018-12-08T23:17:48.940Z,98300.40
2018-12-08T23:22:52.016Z,98258.69
2018-12-08T23:27:54.301Z,98235.05
2018-12-08T23:32:56.473Z,98217.14
2018-12-08T23:37:58.765Z,98193.98
2018-12-08T23:43:00.930Z,98169.23
2018-12-08T23:48:03.202Z,98168.18
2018-12-08T23:53:05.479Z,98164.96
2018-12-08T23:58:07.643Z,98150.25
